Time,TemperatureF,DewpointF,PressureIn,WindDirection,WindDirectionDegrees,WindSpeedMPH,WindSpeedGustMPH,Humidity,HourlyPrecipIn,Conditions,Clouds,dailyrainin,SolarRadiationWatts/m^2,SoftwareType,DateUTC
2013-07-12 00:02:00,78.6,74.1,29.95,SSE,160,0.0,0.0,86,0.00,,,0.00,0,Wunderground v.1.15,2013-07-12 04:02:00,
2013-07-12 00:07:00,78.6,74.1,29.95,SSE,160,0.0,0.0,86,0.00,,,0.00,0,Wunderground v.1.15,2013-07-12 04:07:00,
2013-07-12 00:12:00,78.6,74.1,29.95,SSE,160,0.0,0.0,86,0.00,,,0.00,0,Wunderground v.1.15,2013-07-12 04:12:00,
2013-07-12 00:17:00,78.5,73.6,29.95,SSE,160,0.0,0.0,85,0.00,,,0.00,0,Wunderground v.1.15,2013-07-12 04:17:00,
2013-07-12 00:22:00,78.5,73.6,29.95,SSE,160,0.0,0.0,85,0.00,,,0.00,0,Wunderground v.1.15,2013-07-12 04:22:00,
2013-07-12 00:27:00,78.5,74.0,29.94,SSE,160,0.0,0.0,86,0.00,,,0.00,0,Wunderground v.1.15,2013-07-12 04:27:00,
2013-07-12 00:32:00,78.3,73.8,29.95,SSE,160,0.0,0.0,86,0.00,,,0.00,0,Wunderground v.1.15,2013-07-12 04:32:00,
2013-07-12 00:37:00,78.3,73.8,29.95,SSE,160,0.0,0.0,86,0.00,,,0.00,0,Wunderground v.1.15,2013-07-12 04:37:00,
2013-07-12 00:42:00,78.3,73.8,29.94,SSE,157,0.0,0.0,86,0.00,,,0.00,0,Wunderground v.1.15,2013-07-12 04:42:00,
2013-07-12 00:52:00,78.3,73.8,29.94,SSE,160,0.0,0.0,86,0.00,,,0.00,0,Wunderground v.1.15,2013-07-12 04:52:00,
2013-07-12 01:12:00,77.9,73.4,29.94,SSE,160,0.0,0.0,86,0.00,,,0.00,0,Wunderground v.1.15,2013-07-12 05:12:00,
2013-07-12 01:17:00,77.9,73.4,29.94,SSE,160,0.0,0.0,86,0.00,,,0.00,0,Wunderground v.1.15,2013-07-12 05:17:00,
2013-07-12 01:22:00,77.9,73.4,29.93,SSE,160,0.0,0.0,86,0.00,,,0.00,0,Wunderground v.1.15,2013-07-12 05:22:00,
2013-07-12 01:27:00,77.9,73.4,29.93,SSE,158,0.0,0.0,86,0.00,,,0.00,0,Wunderground v.1.15,2013-07-12 05:27:00,
2013-07-12 01:32:00,77.9,73.4,29.93,SSE,160,0.0,0.0,86,0.00,,,0.00,0,Wunderground v.1.15,2013-07-12 05:32:00,
2013-07-12 01:42:00,77.7,73.2,29.93,SSE,160,0.0,0.0,86,0.00,,,0.00,0,Wunderground v.1.15,2013-07-12 05:42:00,
2013-07-12 01:47:00,77.7,73.5,29.93,SSE,160,0.0,0.0,87,0.00,,,0.00,0,Wunderground v.1.15,2013-07-12 05:47:00,
2013-07-12 01:52:00,77.7,73.5,29.93,SSE,160,0.0,0.0,87,0.00,,,0.00,0,Wunderground v.1.15,2013-07-12 05:52:00,
2013-07-12 01:57:00,77.6,73.4,29.93,SSE,160,0.0,0.0,87,0.00,,,0.00,0,Wunderground v.1.15,2013-07-12 05:57:00,
2013-07-12 02:02:00,77.6,73.4,29.93,SSE,160,0.0,0.0,87,0.00,,,0.00,0,Wunderground v.1.15,2013-07-12 06:02:00,
2013-07-12 02:07:00,77.6,73.4,29.93,SSE,160,0.0,0.0,87,0.00,,,0.00,0,Wunderground v.1.15,2013-07-12 06:07:00,
2013-07-12 02:17:00,77.6,73.4,29.92,SSE,160,0.0,0.0,87,0.00,,,0.00,0,Wunderground v.1.15,2013-07-12 06:17:00,
2013-07-12 02:27:00,77.6,73.4,29.92,SSE,160,0.0,0.0,87,0.00,,,0.00,0,Wunderground v.1.15,2013-07-12 06:27:00,
2013-07-12 02:32:00,77.6,73.8,29.92,SSE,160,0.0,0.0,88,0.00,,,0.00,0,Wunderground v.1.15,2013-07-12 06:32:00,
2013-07-12 02:37:00,77.6,73.8,29.92,SSE,160,0.0,0.0,88,0.00,,,0.00,0,Wunderground v.1.15,2013-07-12 06:37:00,
2013-07-12 02:47:00,77.4,73.6,29.92,SSE,160,0.0,0.0,88,0.00,,,0.00,0,Wunderground v.1.15,2013-07-12 06:47:00,
2013-07-12 02:52:00,77.6,73.8,29.92,SSE,160,0.0,0.0,88,0.00,,,0.00,0,Wunderground v.1.15,2013-07-12 06:52:00,
2013-07-12 03:02:00,77.4,73.9,29.91,SSE,160,0.0,0.0,89,0.00,,,0.00,0,Wunderground v.1.15,2013-07-12 07:02:00,
2013-07-12 03:07:00,77.4,73.9,29.91,SSE,160,0.0,0.0,89,0.00,,,0.00,0,Wunderground v.1.15,2013-07-12 07:07:00,
2013-07-12 03:12:00,77.4,73.9,29.91,SSE,160,0.0,0.0,89,0.00,,,0.00,0,Wunderground v.1.15,2013-07-12 07:12:00,
2013-07-12 03:17:00,77.4,73.9,29.91,SSE,160,0.0,0.0,89,0.00,,,0.00,0,Wunderground v.1.15,2013-07-12 07:17:00,
2013-07-12 03:22:00,77.2,73.7,29.91,SSE,160,0.0,0.0,89,0.00,,,0.00,0,Wunderground v.1.15,2013-07-12 07:22:00,
2013-07-12 03:32:00,77.2,73.7,29.91,SSE,160,0.0,0.0,89,0.00,,,0.00,0,Wunderground v.1.15,2013-07-12 07:32:00,
2013-07-12 03:37:00,77.2,73.7,29.90,SSE,160,0.0,0.0,89,0.00,,,0.00,0,Wunderground v.1.15,2013-07-12 07:37:00,
2013-07-12 03:42:00,77.0,73.5,29.90,SSE,160,0.0,0.0,89,0.00,,,0.00,0,Wunderground v.1.15,2013-07-12 07:42:00,
2013-07-12 03:52:00,77.0,73.8,29.90,SSE,160,0.0,0.0,90,0.00,,,0.00,0,Wunderground v.1.15,2013-07-12 07:52:00,
2013-07-12 04:02:00,76.8,73.6,29.90,SSE,160,0.0,0.0,90,0.00,,,0.00,0,Wunderground v.1.15,2013-07-12 08:02:00,
2013-07-12 04:12:00,76.8,73.6,29.90,SSE,160,0.0,0.0,90,0.00,,,0.00,0,Wunderground v.1.15,2013-07-12 08:12:00,
2013-07-12 04:17:00,76.8,73.6,29.90,SSE,160,0.0,0.0,90,0.00,,,0.00,0,Wunderground v.1.15,2013-07-12 08:17:00,
2013-07-12 04:22:00,76.8,73.6,29.90,SSE,160,0.0,0.0,90,0.00,,,0.00,0,Wunderground v.1.15,2013-07-12 08:22:00,
2013-07-12 04:27:00,76.8,73.6,29.90,SSE,160,0.0,0.0,90,0.00,,,0.00,0,Wunderground v.1.15,2013-07-12 08:27:00,
2013-07-12 04:32:00,76.7,73.5,29.90,SSE,160,0.0,0.0,90,0.00,,,0.00,0,Wunderground v.1.15,2013-07-12 08:32:00,
2013-07-12 04:37:00,76.7,73.5,29.90,SSE,160,0.0,0.0,90,0.00,,,0.00,0,Wunderground v.1.15,2013-07-12 08:37:00,
2013-07-12 04:47:00,76.7,73.5,29.89,SSE,160,0.0,0.0,90,0.00,,,0.00,0,Wunderground v.1.15,2013-07-12 08:47:00,
2013-07-12 04:57:00,76.5,73.3,29.90,SSE,160,0.0,0.0,90,0.00,,,0.00,0,Wunderground v.1.15,2013-07-12 08:57:00,
2013-07-12 05:02:00,76.5,73.7,29.90,SSE,160,0.0,0.0,91,0.00,,,0.00,0,Wunderground v.1.15,2013-07-12 09:02:00,
2013-07-12 05:07:00,76.5,73.7,29.90,SSE,160,0.0,0.0,91,0.00,,,0.00,0,Wunderground v.1.15,2013-07-12 09:07:00,
2013-07-12 05:17:00,76.3,73.5,29.90,SSE,160,0.0,0.0,91,0.00,,,0.00,0,Wunderground v.1.15,2013-07-12 09:17:00,
2013-07-12 05:27:00,76.1,73.3,29.90,SSE,160,0.0,0.0,91,0.00,,,0.00,0,Wunderground v.1.15,2013-07-12 09:27:00,
2013-07-12 05:32:00,76.1,73.3,29.90,SSE,160,0.0,0.0,91,0.00,,,0.00,0,Wunderground v.1.15,2013-07-12 09:32:00,
2013-07-12 05:42:00,76.1,73.3,29.90,SSE,160,0.0,0.0,91,0.00,,,0.00,0,Wunderground v.1.15,2013-07-12 09:42:00,
2013-07-12 05:52:00,76.1,73.3,29.90,SSE,160,0.0,0.0,91,0.00,,,0.00,0,Wunderground v.1.15,2013-07-12 09:52:00,
2013-07-12 05:57:00,76.1,73.6,29.90,SSE,160,0.0,0.0,92,0.00,,,0.00,0,Wunderground v.1.15,2013-07-12 09:57:00,
2013-07-12 06:07:00,76.0,73.5,29.90,SSE,160,0.0,0.0,92,0.00,,,0.00,0,Wunderground v.1.15,2013-07-12 10:07:00,
2013-07-12 06:12:00,76.0,73.5,29.90,SSE,160,0.0,0.0,92,0.00,,,0.00,0,Wunderground v.1.15,2013-07-12 10:12:00,
2013-07-12 06:22:00,75.8,73.3,29.90,SSE,160,0.0,0.0,92,0.00,,,0.00,0,Wunderground v.1.15,2013-07-12 10:22:00,
2013-07-12 06:27:00,75.8,73.3,29.91,SSE,160,0.0,0.0,92,0.00,,,0.00,0,Wunderground v.1.15,2013-07-12 10:27:00,
2013-07-12 06:32:00,75.8,73.3,29.91,SSE,160,0.0,0.0,92,0.00,,,0.00,0,Wunderground v.1.15,2013-07-12 10:32:00,
2013-07-12 06:37:00,75.8,73.3,29.91,SSE,160,0.0,0.0,92,0.00,,,0.00,0,Wunderground v.1.15,2013-07-12 10:37:00,
2013-07-12 06:42:00,75.8,73.3,29.91,SSE,160,0.0,0.0,92,0.00,,,0.00,0,Wunderground v.1.15,2013-07-12 10:42:00,
2013-07-12 06:47:00,75.8,73.3,29.91,SSE,160,0.0,0.0,92,0.00,,,0.00,0,Wunderground v.1.15,2013-07-12 10:47:00,
2013-07-12 06:52:00,75.8,73.3,29.91,SSE,161,0.0,0.0,92,0.00,,,0.00,0,Wunderground v.1.15,2013-07-12 10:52:00,
2013-07-12 07:02:00,76.0,73.8,29.91,SSE,160,0.0,0.0,93,0.00,,,0.00,0,Wunderground v.1.15,2013-07-12 11:02:00,
2013-07-12 07:07:00,76.0,73.8,29.91,SSE,160,0.0,0.0,93,0.00,,,0.00,5,Wunderground v.1.15,2013-07-12 11:07:00,
2013-07-12 07:12:00,76.1,73.9,29.91,SSE,160,0.0,0.0,93,0.00,,,0.00,9,Wunderground v.1.15,2013-07-12 11:12:00,
2013-07-12 07:17:00,76.1,73.9,29.91,SSE,160,0.0,0.0,93,0.00,,,0.00,19,Wunderground v.1.15,2013-07-12 11:17:00,
2013-07-12 07:27:00,76.3,74.1,29.92,SSE,161,0.0,0.0,93,0.00,,,0.00,33,Wunderground v.1.15,2013-07-12 11:27:00,
2013-07-12 07:37:00,76.5,74.3,29.92,SSE,160,0.0,0.0,93,0.00,,,0.00,76,Wunderground v.1.15,2013-07-12 11:37:00,
2013-07-12 07:42:00,76.8,74.9,29.92,SSE,161,0.0,0.0,94,0.00,,,0.00,67,Wunderground v.1.15,2013-07-12 11:42:00,
2013-07-12 07:47:00,77.2,75.3,29.92,SSE,161,0.0,0.0,94,0.00,,,0.00,55,Wunderground v.1.15,2013-07-12 11:47:00,
2013-07-12 07:52:00,77.4,75.5,29.92,SSE,160,0.0,0.0,94,0.00,,,0.00,58,Wunderground v.1.15,2013-07-12 11:52:00,
2013-07-12 08:02:00,77.7,75.8,29.92,SSE,160,0.0,0.0,94,0.00,,,0.00,56,Wunderground v.1.15,2013-07-12 12:02:00,
2013-07-12 08:12:00,78.1,76.2,29.92,SSE,160,0.0,0.0,94,0.00,,,0.00,69,Wunderground v.1.15,2013-07-12 12:12:00,
2013-07-12 08:17:00,78.3,76.4,29.93,SSE,160,0.0,0.0,94,0.00,,,0.00,63,Wunderground v.1.15,2013-07-12 12:17:00,
2013-07-12 08:27:00,78.5,76.6,29.93,SSE,161,0.0,0.0,94,0.00,,,0.00,49,Wunderground v.1.15,2013-07-12 12:27:00,
2013-07-12 08:32:00,78.6,76.7,29.93,SSE,161,0.0,0.0,94,0.00,,,0.00,46,Wunderground v.1.15,2013-07-12 12:32:00,
2013-07-12 08:42:00,78.8,76.6,29.93,SSE,161,0.0,0.0,93,0.00,,,0.00,42,Wunderground v.1.15,2013-07-12 12:42:00,
2013-07-12 08:47:00,78.8,76.6,29.93,SSE,161,0.0,0.0,93,0.00,,,0.00,42,Wunderground v.1.15,2013-07-12 12:47:00,
2013-07-12 08:52:00,79.0,76.8,29.93,SSE,161,0.0,0.0,93,0.00,,,0.00,42,Wunderground v.1.15,2013-07-12 12:52:00,
2013-07-12 08:57:00,79.0,76.8,29.93,SSE,161,0.0,0.0,93,0.00,,,0.00,39,Wunderground v.1.15,2013-07-12 12:57:00,
2013-07-12 09:07:00,79.2,77.0,29.93,SSE,161,0.0,0.0,93,0.00,,,0.00,30,Wunderground v.1.15,2013-07-12 13:07:00,
2013-07-12 09:12:00,79.0,76.5,29.93,SSE,161,0.0,0.0,92,0.00,,,0.00,28,Wunderground v.1.15,2013-07-12 13:12:00,
2013-07-12 09:17:00,79.0,76.8,29.93,SSE,160,0.0,0.0,93,0.00,,,0.00,28,Wunderground v.1.15,2013-07-12 13:17:00,
2013-07-12 09:27:00,79.2,76.7,29.93,SSE,161,0.0,0.0,92,0.00,,,0.00,67,Wunderground v.1.15,2013-07-12 13:27:00,
2013-07-12 09:37:00,79.2,76.7,29.94,SSE,161,0.0,0.0,92,0.00,,,0.00,95,Wunderground v.1.15,2013-07-12 13:37:00,
2013-07-12 09:47:00,79.4,76.9,29.94,SSE,158,1.0,2.0,92,0.00,,,0.00,111,Wunderground v.1.15,2013-07-12 13:47:00,
2013-07-12 09:52:00,79.4,76.9,29.94,SSE,161,1.0,1.0,92,0.00,,,0.00,118,Wunderground v.1.15,2013-07-12 13:52:00,
2013-07-12 10:02:00,79.6,77.1,29.94,SSE,161,1.0,1.0,92,0.00,,,0.00,135,Wunderground v.1.15,2013-07-12 14:02:00,
2013-07-12 10:07:00,79.8,77.3,29.94,SSE,161,1.0,3.0,92,0.00,,,0.00,143,Wunderground v.1.15,2013-07-12 14:07:00,
2013-07-12 10:17:00,79.8,76.9,29.94,SSE,150,3.0,5.0,91,0.00,,,0.00,172,Wunderground v.1.15,2013-07-12 14:17:00,
2013-07-12 10:22:00,80.1,76.9,29.94,SE,128,3.0,4.0,90,0.00,,,0.00,216,Wunderground v.1.15,2013-07-12 14:22:00,
2013-07-12 10:32:00,80.5,76.3,29.94,SSE,148,3.0,3.0,87,0.00,,,0.00,252,Wunderground v.1.15,2013-07-12 14:32:00,
2013-07-12 10:42:00,81.2,76.3,29.94,South,174,3.0,3.0,85,0.00,,,0.00,274,Wunderground v.1.15,2013-07-12 14:42:00,
2013-07-12 10:47:00,81.4,76.5,29.94,SE,130,3.0,6.0,85,0.00,,,0.00,273,Wunderground v.1.15,2013-07-12 14:47:00,
2013-07-12 10:57:00,82.2,76.9,29.94,SE,140,6.0,6.0,84,0.00,,,0.00,472,Wunderground v.1.15,2013-07-12 14:57:00,
2013-07-12 11:07:00,83.2,76.4,29.94,SE,133,3.0,4.0,80,0.00,,,0.00,558,Wunderground v.1.15,2013-07-12 15:07:00,
2013-07-12 11:17:00,84.5,76.1,29.94,SSW,196,2.0,3.0,76,0.00,,,0.00,853,Wunderground v.1.15,2013-07-12 15:17:00,
2013-07-12 11:22:00,85.1,77.5,29.94,SSE,158,2.0,2.0,78,0.00,,,0.00,874,Wunderground v.1.15,2013-07-12 15:22:00,
2013-07-12 11:27:00,84.9,75.3,29.93,SSW,212,2.0,2.0,73,0.00,,,0.00,399,Wunderground v.1.15,2013-07-12 15:27:00,
2013-07-12 11:32:00,85.9,76.2,29.93,SSE,155,2.0,5.0,73,0.00,,,0.00,1119,Wunderground v.1.15,2013-07-12 15:32:00,
2013-07-12 11:37:00,85.7,75.6,29.93,SW,224,2.0,6.0,72,0.00,,,0.00,297,Wunderground v.1.15,2013-07-12 15:37:00,
2013-07-12 11:42:00,85.9,75.0,29.93,WSW,251,4.0,7.0,70,0.00,,,0.00,1098,Wunderground v.1.15,2013-07-12 15:42:00,
2013-07-12 11:52:00,86.1,74.3,29.93,WSW,241,4.0,4.0,68,0.00,,,0.00,315,Wunderground v.1.15,2013-07-12 15:52:00,
2013-07-12 11:57:00,86.1,74.3,29.93,WSW,237,4.0,4.0,68,0.00,,,0.00,523,Wunderground v.1.15,2013-07-12 15:57:00,
2013-07-12 12:07:00,85.5,73.3,29.93,SW,226,3.0,7.0,67,0.00,,,0.00,264,Wunderground v.1.15,2013-07-12 16:07:00,
2013-07-12 12:12:00,85.9,73.2,29.93,WSW,237,4.0,4.0,66,0.00,,,0.00,234,Wunderground v.1.15,2013-07-12 16:12:00,
2013-07-12 12:17:00,85.5,73.3,29.93,SSW,208,4.0,4.0,67,0.00,,,0.00,274,Wunderground v.1.15,2013-07-12 16:17:00,
2013-07-12 12:22:00,85.9,73.7,29.93,WSW,241,4.0,4.0,67,0.00,,,0.00,269,Wunderground v.1.15,2013-07-12 16:22:00,
2013-07-12 12:27:00,85.5,72.8,29.93,SW,226,5.0,5.0,66,0.00,,,0.00,104,Wunderground v.1.15,2013-07-12 16:27:00,
2013-07-12 12:32:00,84.9,72.7,29.93,West,280,5.0,5.0,67,0.00,,,0.00,120,Wunderground v.1.15,2013-07-12 16:32:00,
2013-07-12 12:37:00,84.7,72.5,29.93,West,278,4.0,5.0,67,0.00,,,0.00,116,Wunderground v.1.15,2013-07-12 16:37:00,
2013-07-12 12:42:00,84.3,73.4,29.94,ENE,61,2.0,3.0,70,0.00,,,0.00,84,Wunderground v.1.15,2013-07-12 16:42:00,
2013-07-12 12:47:00,83.6,74.0,29.94,NNE,24,2.0,3.0,73,0.00,,,0.00,132,Wunderground v.1.15,2013-07-12 16:47:00,
2013-07-12 12:57:00,81.2,73.3,29.94,NE,52,2.0,2.0,77,0.00,,,0.00,100,Wunderground v.1.15,2013-07-12 16:57:00,
2013-07-12 13:02:00,81.2,73.3,29.94,ENE,62,2.0,7.0,77,0.00,,,0.00,93,Wunderground v.1.15,2013-07-12 17:02:00,
2013-07-12 13:12:00,81.1,72.8,29.93,ENE,65,4.0,4.0,76,0.00,,,0.00,90,Wunderground v.1.15,2013-07-12 17:12:00,
2013-07-12 13:17:00,81.1,72.8,29.94,ENE,61,3.0,4.0,76,0.00,,,0.00,125,Wunderground v.1.15,2013-07-12 17:17:00,
2013-07-12 13:27:00,80.9,73.0,29.93,NE,51,2.0,3.0,77,0.00,,,0.00,135,Wunderground v.1.15,2013-07-12 17:27:00,
2013-07-12 13:32:00,81.1,73.2,29.93,NE,51,1.0,2.0,77,0.00,,,0.00,137,Wunderground v.1.15,2013-07-12 17:32:00,
2013-07-12 13:37:00,81.1,73.6,29.93,ENE,61,1.0,2.0,78,0.00,,,0.00,192,Wunderground v.1.15,2013-07-12 17:37:00,
2013-07-12 13:42:00,81.2,73.3,29.93,ENE,61,1.0,1.0,77,0.00,,,0.00,266,Wunderground v.1.15,2013-07-12 17:42:00,
2013-07-12 13:52:00,82.6,74.7,29.93,ENE,65,1.0,2.0,77,0.00,,,0.00,693,Wunderground v.1.15,2013-07-12 17:52:00,
2013-07-12 14:02:00,83.6,74.0,29.92,North,0,1.0,2.0,73,0.00,,,0.00,778,Wunderground v.1.15,2013-07-12 18:02:00,
2013-07-12 14:12:00,85.9,76.6,29.91,North,359,1.0,3.0,74,0.00,,,0.00,764,Wunderground v.1.15,2013-07-12 18:12:00,
2013-07-12 14:17:00,86.1,75.6,29.91,NW,319,3.0,3.0,71,0.00,,,0.00,642,Wunderground v.1.15,2013-07-12 18:17:00,
2013-07-12 14:32:00,84.7,74.3,29.91,WNW,295,3.0,3.0,71,0.00,,,0.00,487,Wunderground v.1.15,2013-07-12 18:32:00,
2013-07-12 14:37:00,85.7,75.6,29.91,West,268,2.0,3.0,72,0.00,,,0.00,366,Wunderground v.1.15,2013-07-12 18:37:00,
2013-07-12 14:42:00,86.3,74.5,29.91,WSW,258,2.0,6.0,68,0.00,,,0.00,398,Wunderground v.1.15,2013-07-12 18:42:00,
2013-07-12 14:47:00,86.1,73.9,29.91,WSW,243,3.0,6.0,67,0.00,,,0.00,289,Wunderground v.1.15,2013-07-12 18:47:00,
2013-07-12 14:52:00,85.5,73.3,29.90,NNW,329,3.0,3.0,67,0.00,,,0.00,273,Wunderground v.1.15,2013-07-12 18:52:00,
2013-07-12 14:57:00,85.5,73.3,29.90,WNW,302,3.0,6.0,67,0.00,,,0.00,297,Wunderground v.1.15,2013-07-12 18:57:00,
2013-07-12 15:12:00,86.1,73.4,29.91,WSW,244,3.0,7.0,66,0.00,,,0.00,885,Wunderground v.1.15,2013-07-12 19:12:00,
2013-07-12 15:17:00,87.4,75.5,29.90,WSW,254,4.0,7.0,68,0.00,,,0.00,758,Wunderground v.1.15,2013-07-12 19:17:00,
2013-07-12 15:27:00,87.0,72.9,29.90,WNW,288,4.0,5.0,63,0.00,,,0.00,320,Wunderground v.1.15,2013-07-12 19:27:00,
2013-07-12 15:42:00,84.1,74.5,29.91,NE,54,2.0,2.0,73,0.00,,,0.00,561,Wunderground v.1.15,2013-07-12 19:42:00,
2013-07-12 15:52:00,85.7,75.6,29.90,North,0,1.0,2.0,72,0.00,,,0.00,465,Wunderground v.1.15,2013-07-12 19:52:00,
2013-07-12 15:57:00,85.9,75.8,29.90,North,4,2.0,2.0,72,0.00,,,0.00,329,Wunderground v.1.15,2013-07-12 19:57:00,
2013-07-12 16:02:00,86.5,76.4,29.90,North,0,2.0,2.0,72,0.00,,,0.00,852,Wunderground v.1.15,2013-07-12 20:02:00,
2013-07-12 16:17:00,87.8,75.5,29.89,West,278,3.0,6.0,67,0.00,,,0.00,966,Wunderground v.1.15,2013-07-12 20:17:00,
2013-07-12 16:22:00,87.4,73.3,29.89,SW,233,5.0,6.0,63,0.00,,,0.00,878,Wunderground v.1.15,2013-07-12 20:22:00,
2013-07-12 16:32:00,89.0,73.8,29.89,SSW,208,6.0,6.0,61,0.00,,,0.00,857,Wunderground v.1.15,2013-07-12 20:32:00,
2013-07-12 16:37:00,88.4,74.2,29.89,South,182,5.0,6.0,63,0.00,,,0.00,829,Wunderground v.1.15,2013-07-12 20:37:00,
2013-07-12 16:42:00,87.0,73.8,29.89,West,278,5.0,6.0,65,0.00,,,0.00,181,Wunderground v.1.15,2013-07-12 20:42:00,
2013-07-12 16:47:00,86.1,74.7,29.89,WSW,246,4.0,6.0,69,0.00,,,0.00,218,Wunderground v.1.15,2013-07-12 20:47:00,
2013-07-12 16:52:00,86.3,73.6,29.89,WSW,237,3.0,4.0,66,0.00,,,0.00,317,Wunderground v.1.15,2013-07-12 20:52:00,
2013-07-12 16:57:00,87.2,74.0,29.89,WSW,240,5.0,5.0,65,0.00,,,0.00,285,Wunderground v.1.15,2013-07-12 20:57:00,
2013-07-12 17:02:00,87.2,74.9,29.89,WSW,247,4.0,4.0,67,0.00,,,0.00,301,Wunderground v.1.15,2013-07-12 21:02:00,
2013-07-12 17:07:00,87.2,73.5,29.89,NNW,329,3.0,6.0,64,0.00,,,0.00,744,Wunderground v.1.15,2013-07-12 21:07:00,
2013-07-12 17:12:00,88.0,74.3,29.89,West,277,4.0,5.0,64,0.00,,,0.00,725,Wunderground v.1.15,2013-07-12 21:12:00,
2013-07-12 17:22:00,88.4,73.7,29.89,SSW,213,4.0,6.0,62,0.00,,,0.00,677,Wunderground v.1.15,2013-07-12 21:22:00,
2013-07-12 17:27:00,88.8,74.1,29.89,SSW,205,4.0,6.0,62,0.00,,,0.00,658,Wunderground v.1.15,2013-07-12 21:27:00,
2013-07-12 17:32:00,88.6,73.9,29.89,West,277,5.0,5.0,62,0.00,,,0.00,623,Wunderground v.1.15,2013-07-12 21:32:00,
2013-07-12 17:37:00,88.8,74.1,29.89,WNW,301,5.0,5.0,62,0.00,,,0.00,693,Wunderground v.1.15,2013-07-12 21:37:00,
2013-07-12 17:52:00,87.4,73.3,29.88,WNW,284,5.0,7.0,63,0.00,,,0.00,480,Wunderground v.1.15,2013-07-12 21:52:00,
2013-07-12 17:57:00,86.7,73.1,29.88,West,260,5.0,7.0,64,0.00,,,0.00,274,Wunderground v.1.15,2013-07-12 21:57:00,
2013-07-12 18:02:00,86.5,72.9,29.88,NW,313,6.0,6.0,64,0.00,,,0.00,619,Wunderground v.1.15,2013-07-12 22:02:00,
2013-07-12 18:07:00,87.6,72.5,29.88,SW,219,5.0,6.0,61,0.00,,,0.00,582,Wunderground v.1.15,2013-07-12 22:07:00,
2013-07-12 18:12:00,87.6,72.5,29.88,West,264,5.0,5.0,61,0.00,,,0.00,561,Wunderground v.1.15,2013-07-12 22:12:00,
2013-07-12 18:22:00,87.6,72.5,29.88,WNW,294,4.0,6.0,61,0.00,,,0.00,487,Wunderground v.1.15,2013-07-12 22:22:00,
2013-07-12 18:27:00,87.2,73.1,29.88,WSW,244,5.0,8.0,63,0.00,,,0.00,406,Wunderground v.1.15,2013-07-12 22:27:00,
2013-07-12 18:32:00,87.0,72.9,29.88,West,270,5.0,5.0,63,0.00,,,0.00,394,Wunderground v.1.15,2013-07-12 22:32:00,
2013-07-12 18:37:00,86.3,72.7,29.88,WSW,240,4.0,5.0,64,0.00,,,0.00,334,Wunderground v.1.15,2013-07-12 22:37:00,
2013-07-12 18:47:00,86.5,73.3,29.89,SW,217,3.0,8.0,65,0.00,,,0.00,183,Wunderground v.1.15,2013-07-12 22:47:00,
2013-07-12 18:52:00,86.1,73.0,29.89,SSW,213,3.0,5.0,65,0.00,,,0.00,241,Wunderground v.1.15,2013-07-12 22:52:00,
2013-07-12 18:57:00,86.1,73.4,29.89,SW,216,3.0,5.0,66,0.00,,,0.00,137,Wunderground v.1.15,2013-07-12 22:57:00,
2013-07-12 19:07:00,85.5,72.4,29.89,WSW,243,3.0,4.0,65,0.00,,,0.00,132,Wunderground v.1.15,2013-07-12 23:07:00,
2013-07-12 19:12:00,85.5,73.7,29.89,SSW,203,3.0,3.0,68,0.00,,,0.00,139,Wunderground v.1.15,2013-07-12 23:12:00,
2013-07-12 19:17:00,85.3,73.5,29.89,SW,219,3.0,3.0,68,0.00,,,0.00,123,Wunderground v.1.15,2013-07-12 23:17:00,
2013-07-12 19:27:00,85.3,74.4,29.90,North,0,1.0,2.0,70,0.00,,,0.00,155,Wunderground v.1.15,2013-07-12 23:27:00,
2013-07-12 19:32:00,85.1,73.8,29.90,SW,233,1.0,1.0,69,0.00,,,0.00,148,Wunderground v.1.15,2013-07-12 23:32:00,
2013-07-12 19:37:00,85.1,73.8,29.90,SW,223,2.0,2.0,69,0.00,,,0.00,132,Wunderground v.1.15,2013-07-12 23:37:00,
2013-07-12 19:42:00,85.1,73.3,29.90,SW,230,3.0,3.0,68,0.00,,,0.00,67,Wunderground v.1.15,2013-07-12 23:42:00,
2013-07-12 19:47:00,85.1,73.3,29.90,ENE,66,2.0,3.0,68,0.00,,,0.00,44,Wunderground v.1.15,2013-07-12 23:47:00,
2013-07-12 19:52:00,84.9,73.6,29.90,East,80,2.0,2.0,69,0.00,,,0.00,33,Wunderground v.1.15,2013-07-12 23:52:00,
2013-07-12 20:02:00,84.1,73.7,29.90,ENE,72,4.0,4.0,71,0.00,,,0.00,23,Wunderground v.1.15,2013-07-13 00:02:00,
2013-07-12 20:17:00,82.4,72.9,29.90,ENE,78,4.0,6.0,73,0.00,,,0.00,11,Wunderground v.1.15,2013-07-13 00:17:00,
2013-07-12 20:22:00,82.0,72.9,29.91,ESE,104,2.0,7.0,74,0.00,,,0.00,7,Wunderground v.1.15,2013-07-13 00:22:00,
2013-07-12 20:27:00,81.6,72.9,29.91,SE,137,3.0,7.0,75,0.00,,,0.00,0,Wunderground v.1.15,2013-07-13 00:27:00,
2013-07-12 20:32:00,81.2,72.9,29.91,East,88,4.0,8.0,76,0.00,,,0.00,0,Wunderground v.1.15,2013-07-13 00:32:00,
2013-07-12 20:42:00,80.7,72.4,29.91,East,92,3.0,3.0,76,0.00,,,0.00,0,Wunderground v.1.15,2013-07-13 00:42:00,
2013-07-12 20:47:00,80.5,72.2,29.91,ESE,114,3.0,3.0,76,0.00,,,0.00,0,Wunderground v.1.15,2013-07-13 00:47:00,
2013-07-12 20:52:00,80.3,72.0,29.92,East,85,3.0,3.0,76,0.00,,,0.00,0,Wunderground v.1.15,2013-07-13 00:52:00,
2013-07-12 21:02:00,79.9,71.7,29.92,ENE,73,1.0,1.0,76,0.00,,,0.00,0,Wunderground v.1.15,2013-07-13 01:02:00,
2013-07-12 21:07:00,79.9,72.0,29.92,North,11,2.0,2.0,77,0.00,,,0.00,0,Wunderground v.1.15,2013-07-13 01:07:00,
2013-07-12 21:12:00,79.8,71.9,29.92,NNE,13,1.0,1.0,77,0.00,,,0.00,0,Wunderground v.1.15,2013-07-13 01:12:00,
2013-07-12 21:17:00,79.6,72.1,29.92,NNE,13,0.0,1.0,78,0.00,,,0.00,0,Wunderground v.1.15,2013-07-13 01:17:00,
2013-07-12 21:22:00,79.6,72.5,29.92,ENE,59,1.0,1.0,79,0.00,,,0.00,0,Wunderground v.1.15,2013-07-13 01:22:00,
2013-07-12 21:32:00,79.2,72.1,29.92,ENE,58,1.0,1.0,79,0.00,,,0.00,0,Wunderground v.1.15,2013-07-13 01:32:00,
2013-07-12 21:37:00,79.2,72.5,29.92,ENE,59,1.0,1.0,80,0.00,,,0.00,0,Wunderground v.1.15,2013-07-13 01:37:00,
2013-07-12 21:42:00,79.0,72.3,29.91,ESE,123,1.0,4.0,80,0.00,,,0.00,0,Wunderground v.1.15,2013-07-13 01:42:00,
2013-07-12 21:47:00,78.8,72.5,29.91,SE,140,2.0,4.0,81,0.00,,,0.00,0,Wunderground v.1.15,2013-07-13 01:47:00,
2013-07-12 21:57:00,78.8,72.8,29.92,SE,130,2.0,3.0,82,0.00,,,0.00,0,Wunderground v.1.15,2013-07-13 01:57:00,
2013-07-12 22:07:00,78.6,73.0,29.92,East,93,2.0,2.0,83,0.00,,,0.00,0,Wunderground v.1.15,2013-07-13 02:07:00,
2013-07-12 22:12:00,78.6,73.0,29.92,ENE,78,2.0,2.0,83,0.00,,,0.00,0,Wunderground v.1.15,2013-07-13 02:12:00,
2013-07-12 22:17:00,78.5,72.9,29.92,East,82,2.0,3.0,83,0.00,,,0.00,0,Wunderground v.1.15,2013-07-13 02:17:00,
2013-07-12 22:22:00,78.5,73.3,29.93,East,97,2.0,2.0,84,0.00,,,0.00,0,Wunderground v.1.15,2013-07-13 02:22:00,
2013-07-12 22:32:00,78.5,73.3,29.93,East,100,1.0,1.0,84,0.00,,,0.00,0,Wunderground v.1.15,2013-07-13 02:32:00,
2013-07-12 22:37:00,78.5,73.6,29.93,East,100,1.0,2.0,85,0.00,,,0.00,0,Wunderground v.1.15,2013-07-13 02:37:00,
2013-07-12 22:42:00,78.5,73.6,29.93,East,100,1.0,1.0,85,0.00,,,0.00,0,Wunderground v.1.15,2013-07-13 02:42:00,
2013-07-12 22:52:00,78.5,74.0,29.93,East,100,1.0,1.0,86,0.00,,,0.00,0,Wunderground v.1.15,2013-07-13 02:52:00,
2013-07-12 23:07:00,78.5,74.0,29.93,SE,128,1.0,2.0,86,0.00,,,0.00,0,Wunderground v.1.15,2013-07-13 03:07:00,
2013-07-12 23:17:00,78.3,73.8,29.93,SE,133,1.0,3.0,86,0.00,,,0.00,0,Wunderground v.1.15,2013-07-13 03:17:00,
2013-07-12 23:22:00,78.1,73.9,29.93,SE,127,1.0,1.0,87,0.00,,,0.00,0,Wunderground v.1.15,2013-07-13 03:22:00,
2013-07-12 23:27:00,78.1,73.9,29.93,SE,133,0.0,1.0,87,0.00,,,0.00,0,Wunderground v.1.15,2013-07-13 03:27:00,
2013-07-12 23:37:00,78.1,73.9,29.93,SE,133,0.0,0.0,87,0.00,,,0.00,0,Wunderground v.1.15,2013-07-13 03:37:00,
2013-07-12 23:42:00,77.9,73.7,29.93,SE,131,0.0,0.0,87,0.00,,,0.00,0,Wunderground v.1.15,2013-07-13 03:42:00,
2013-07-12 23:52:00,77.9,73.7,29.93,SE,131,0.0,0.0,87,0.00,,,0.00,0,Wunderground v.1.15,2013-07-13 03:52:00,
2013-07-12 23:57:00,77.9,73.7,29.93,SE,131,0.0,0.0,87,0.00,,,0.00,0,Wunderground v.1.15,2013-07-13 03:57:00,